Terminal Aerodrome Forecast
Issued by NWS Medford, OR

Home | Current Version | Previous Version | Text Only | Print | Product List | Glossary On
Versions: 1 2 3 4 5 6 7 8 9 10 11 12
000
FTUS46 KMFR 281126
TAFMFR
TAF
KMFR 281126Z 2812/2912 VRB02KT P6SM SKC
     FM282300 32008KT P6SM SCT090
     FM290500 VRB02KT P6SM SCT090=

USA.gov is the U.S. government's official web portal to all federal, state and local government web resources and services.